createdAt,value
2018-08-18T00:00:15.416Z,3.10
2018-08-18T00:02:44.124Z,4.10
2018-08-18T00:05:13.517Z,3.13
2018-08-18T00:07:42.346Z,2.93
2018-08-18T00:10:12.623Z,5.27
2018-08-18T00:12:43.017Z,3.60
2018-08-18T00:15:11.770Z,3.37
2018-08-18T00:17:40.687Z,4.27
2018-08-18T00:20:11.782Z,2.37
2018-08-18T00:22:40.605Z,3.57
2018-08-18T00:25:09.328Z,2.47
2018-08-18T00:27:38.107Z,2.17
2018-08-18T00:30:14.070Z,3.33
2018-08-18T00:32:42.939Z,3.23
2018-08-18T00:35:11.657Z,2.43
2018-08-18T00:37:40.371Z,5.13
2018-08-18T00:40:10.274Z,2.33
2018-08-18T00:42:39.298Z,2.80
2018-08-18T00:45:09.663Z,3.83
2018-08-18T00:47:38.656Z,2.67
2018-08-18T00:50:08.013Z,3.87
2018-08-18T00:52:36.939Z,3.17
2018-08-18T00:55:05.719Z,2.50
2018-08-18T00:57:34.561Z,2.80
2018-08-18T01:00:03.475Z,2.30
2018-08-18T01:02:32.189Z,2.70
2018-08-18T01:05:02.917Z,3.17
2018-08-18T01:07:32.530Z,5.37
2018-08-18T01:10:01.960Z,3.10
2018-08-18T01:12:30.853Z,3.30
2018-08-18T01:14:59.518Z,2.23
2018-08-18T01:17:28.151Z,5.03
2018-08-18T01:19:58.033Z,2.40
2018-08-18T01:22:27.373Z,3.37
2018-08-18T01:24:56.092Z,3.70
2018-08-18T01:27:24.846Z,2.27
2018-08-18T01:30:00.741Z,2.37
2018-08-18T01:32:30.658Z,2.30
2018-08-18T01:34:59.382Z,3.50
2018-08-18T01:37:28.171Z,2.53
2018-08-18T01:39:56.921Z,2.93
2018-08-18T01:42:25.676Z,4.17
2018-08-18T01:44:55.236Z,2.23
2018-08-18T01:47:23.998Z,2.53
2018-08-18T01:49:52.748Z,3.70
2018-08-18T01:52:25.438Z,2.07
2018-08-18T01:54:54.143Z,3.13
2018-08-18T01:57:23.562Z,2.70
2018-08-18T01:59:52.287Z,6.33
2018-08-18T02:02:23.216Z,2.17
2018-08-18T02:04:52.196Z,2.17
2018-08-18T02:07:27.647Z,2.50
2018-08-18T02:09:56.828Z,3.07
2018-08-18T02:12:25.905Z,3.17
2018-08-18T02:14:55.641Z,6.33
2018-08-18T02:17:28.177Z,5.57
2018-08-18T02:19:57.122Z,4.40
2018-08-18T02:22:26.415Z,2.10
2018-08-18T02:24:55.137Z,1.83
2018-08-18T02:27:23.904Z,2.93
2018-08-18T02:30:05.063Z,5.50
2018-08-18T02:32:36.541Z,4.63
2018-08-18T02:35:05.771Z,3.00
2018-08-18T02:37:34.499Z,2.27
2018-08-18T02:40:04.228Z,2.40
2018-08-18T02:42:32.915Z,3.50
2018-08-18T02:45:01.631Z,4.03
2018-08-18T02:47:30.332Z,3.87
2018-08-18T02:50:00.429Z,1.93
2018-08-18T02:52:33.150Z,4.03
2018-08-18T02:55:05.964Z,2.83
2018-08-18T02:57:37.807Z,2.43
2018-08-18T03:00:08.301Z,2.87
2018-08-18T03:02:37.004Z,4.53
2018-08-18T03:05:05.792Z,2.67
2018-08-18T03:07:38.828Z,2.77
2018-08-18T03:10:15.478Z,2.50
2018-08-18T03:12:44.777Z,2.10
2018-08-18T03:15:55.152Z,2.70
2018-08-18T03:18:35.376Z,3.03
2018-08-18T03:21:04.386Z,2.63
2018-08-18T03:23:34.010Z,5.47
2018-08-18T03:26:02.894Z,5.93
2018-08-18T03:28:37.202Z,6.37
2018-08-18T03:31:06.092Z,2.63
2018-08-18T03:33:34.837Z,2.20
2018-08-18T03:36:15.786Z,2.90
2018-08-18T03:38:44.552Z,7.17
2018-08-18T03:41:13.295Z,2.67
2018-08-18T03:43:42.008Z,3.30
2018-08-18T03:46:10.748Z,3.97
2018-08-18T03:48:39.440Z,2.90
2018-08-18T03:51:08.182Z,4.47
2018-08-18T03:53:36.920Z,3.60
2018-08-18T03:56:05.653Z,3.47
2018-08-18T03:58:45.812Z,4.83
2018-08-18T04:01:14.645Z,4.37
2018-08-18T04:03:43.347Z,17.87
2018-08-18T04:06:12.062Z,5.03
2018-08-18T04:08:40.787Z,6.10
2018-08-18T04:11:09.529Z,5.03
2018-08-18T04:13:38.244Z,4.00
2018-08-18T04:16:06.987Z,8.00
2018-08-18T04:18:35.716Z,4.77
2018-08-18T04:21:04.454Z,3.87
2018-08-18T04:23:33.139Z,5.63
2018-08-18T04:26:01.928Z,4.87
2018-08-18T04:28:30.633Z,5.40
2018-08-18T04:30:59.370Z,5.17
2018-08-18T04:33:28.355Z,3.80
2018-08-18T04:36:00.313Z,5.10
2018-08-18T04:38:29.020Z,4.73
2018-08-18T04:40:57.729Z,5.20
2018-08-18T04:43:26.513Z,5.23
2018-08-18T04:45:55.267Z,5.03
2018-08-18T04:48:29.375Z,6.20
2018-08-18T04:50:58.139Z,11.70
2018-08-18T04:53:26.810Z,3.77
2018-08-18T04:55:55.514Z,4.70
2018-08-18T04:58:24.251Z,6.17
2018-08-18T05:00:52.965Z,7.10
2018-08-18T05:03:21.753Z,3.87
2018-08-18T05:05:50.468Z,5.03
2018-08-18T05:08:19.237Z,5.40
2018-08-18T05:10:47.953Z,5.70
2018-08-18T05:13:16.634Z,5.73
2018-08-18T05:15:45.346Z,6.83
2018-08-18T05:18:14.076Z,5.23
2018-08-18T05:20:42.812Z,3.53
2018-08-18T05:23:26.467Z,4.57
2018-08-18T05:25:55.180Z,4.07
2018-08-18T05:28:23.966Z,6.97
2018-08-18T05:30:54.090Z,6.07
2018-08-18T05:33:22.795Z,6.47
2018-08-18T05:35:51.565Z,3.60
2018-08-18T05:38:20.284Z,7.20
2018-08-18T05:40:49.000Z,4.33
2018-08-18T05:43:17.833Z,4.20
2018-08-18T05:45:46.644Z,4.20
2018-08-18T05:48:15.360Z,13.03
2018-08-18T05:50:44.068Z,8.07
2018-08-18T05:53:21.258Z,2.83
2018-08-18T05:55:50.352Z,5.70
2018-08-18T05:58:19.210Z,4.47
2018-08-18T06:00:48.626Z,6.30
2018-08-18T06:03:19.354Z,2.97
2018-08-18T06:05:48.263Z,3.73
2018-08-18T06:08:17.135Z,3.73
2018-08-18T06:10:45.855Z,6.00
2018-08-18T06:13:22.802Z,6.00
2018-08-18T06:16:08.691Z,3.57
2018-08-18T06:18:39.533Z,6.43
2018-08-18T06:21:08.434Z,3.50
2018-08-18T06:23:38.158Z,2.97
2018-08-18T06:26:07.266Z,6.77
2018-08-18T06:28:35.961Z,2.33
2018-08-18T06:31:05.007Z,5.50
2018-08-18T06:33:33.733Z,5.50
2018-08-18T06:36:02.981Z,4.50
2018-08-18T06:38:31.808Z,5.83
2018-08-18T06:41:01.726Z,3.70
2018-08-18T06:43:31.722Z,6.50
2018-08-18T06:46:00.942Z,4.53
2018-08-18T06:48:32.324Z,5.50
2018-08-18T06:51:01.283Z,3.53
2018-08-18T06:53:30.463Z,5.60
2018-08-18T06:56:00.450Z,3.40
2018-08-18T06:58:29.183Z,4.27
2018-08-18T07:00:57.909Z,3.27
2018-08-18T07:03:34.234Z,4.20
2018-08-18T07:06:03.928Z,6.30
2018-08-18T07:08:38.617Z,4.67
2018-08-18T07:11:07.328Z,8.93
2018-08-18T07:13:36.064Z,3.37
2018-08-18T07:16:04.764Z,5.37
2018-08-18T07:18:33.522Z,5.77
2018-08-18T07:21:02.262Z,3.17
2018-08-18T07:23:31.794Z,6.40
2018-08-18T07:26:01.379Z,5.93
2018-08-18T07:28:30.232Z,3.57
2018-08-18T07:30:58.933Z,6.17
2018-08-18T07:33:27.646Z,11.27
2018-08-18T07:35:56.408Z,7.97
2018-08-18T07:38:25.170Z,1.87
2018-08-18T07:40:54.660Z,4.37
2018-08-18T07:43:30.550Z,6.93
2018-08-18T07:46:00.622Z,4.63
2018-08-18T07:48:29.372Z,7.10
2018-08-18T07:50:58.094Z,5.73
2018-08-18T07:53:26.859Z,4.37
2018-08-18T07:55:55.650Z,5.37
2018-08-18T07:58:25.116Z,5.87
2018-08-18T08:00:56.302Z,6.50
2018-08-18T08:03:25.022Z,3.20
2018-08-18T08:05:53.734Z,5.37
2018-08-18T08:08:22.459Z,3.07
2018-08-18T08:10:53.521Z,4.50
2018-08-18T08:13:22.293Z,4.93
2018-08-18T08:15:51.013Z,5.87
2018-08-18T08:18:19.811Z,7.30
2018-08-18T08:20:48.455Z,7.10
2018-08-18T08:23:17.412Z,7.83
2018-08-18T08:25:46.053Z,5.40
2018-08-18T08:28:15.281Z,4.53
2018-08-18T08:30:43.999Z,2.87
2018-08-18T08:33:13.321Z,5.43
2018-08-18T08:35:42.057Z,3.57
2018-08-18T08:38:10.810Z,4.60
2018-08-18T08:40:39.550Z,5.20
2018-08-18T08:43:08.728Z,4.93
2018-08-18T08:45:37.536Z,7.67
2018-08-18T08:48:06.284Z,5.80
2018-08-18T08:50:35.020Z,3.27
2018-08-18T08:53:03.816Z,7.43
2018-08-18T08:55:32.595Z,6.43
2018-08-18T08:58:01.354Z,5.37
2018-08-18T09:00:30.103Z,4.50
2018-08-18T09:02:58.873Z,3.90
2018-08-18T09:05:27.770Z,4.93
2018-08-18T09:07:56.495Z,3.87
2018-08-18T09:10:25.286Z,4.73
2018-08-18T09:12:53.986Z,5.37
2018-08-18T09:15:22.710Z,5.20
2018-08-18T09:17:51.414Z,7.17
2018-08-18T09:20:20.202Z,3.33
2018-08-18T09:23:00.390Z,3.70
2018-08-18T09:25:30.307Z,4.80
2018-08-18T09:28:01.493Z,6.33
2018-08-18T09:30:31.364Z,5.47
2018-08-18T09:33:02.400Z,4.53
2018-08-18T09:35:41.537Z,3.47
2018-08-18T09:38:10.317Z,3.40
2018-08-18T09:40:39.013Z,5.73
2018-08-18T09:43:14.968Z,3.57
2018-08-18T09:45:43.695Z,4.07
2018-08-18T09:48:12.591Z,3.77
2018-08-18T09:50:41.339Z,3.23
2018-08-18T09:53:10.053Z,3.87
2018-08-18T09:55:38.783Z,4.23
2018-08-18T09:58:08.084Z,4.30
2018-08-18T10:00:40.586Z,4.57
2018-08-18T10:03:09.887Z,6.57
2018-08-18T10:05:38.973Z,3.97
2018-08-18T10:08:07.871Z,4.83
2018-08-18T10:10:36.631Z,9.07
2018-08-18T10:13:05.876Z,4.27
2018-08-18T10:15:34.788Z,5.07
2018-08-18T10:18:03.497Z,3.70
2018-08-18T10:20:36.835Z,2.50
2018-08-18T10:23:05.571Z,3.43
2018-08-18T10:25:34.366Z,5.90
2018-08-18T10:28:03.105Z,6.93
2018-08-18T10:30:32.067Z,5.47
2018-08-18T10:33:00.798Z,4.10
2018-08-18T10:35:31.019Z,3.33
2018-08-18T10:38:01.321Z,5.83
2018-08-18T10:40:30.199Z,4.97
2018-08-18T10:42:59.033Z,7.60
2018-08-18T10:45:27.793Z,4.30
2018-08-18T10:47:56.512Z,4.23
2018-08-18T10:50:42.084Z,3.93
2018-08-18T10:53:10.806Z,4.40
2018-08-18T10:55:39.631Z,7.13
2018-08-18T10:58:14.922Z,4.63
2018-08-18T11:00:43.705Z,8.50
2018-08-18T11:03:12.464Z,5.17
2018-08-18T11:05:41.194Z,4.93
2018-08-18T11:08:10.366Z,4.53
2018-08-18T11:10:40.605Z,6.83
2018-08-18T11:13:09.396Z,3.37
2018-08-18T11:15:38.120Z,5.63
2018-08-18T11:18:06.852Z,4.67
2018-08-18T11:20:35.922Z,7.65
2018-08-18T11:23:13.512Z,4.10
2018-08-18T11:25:47.622Z,5.78
2018-08-18T11:28:16.912Z,7.78
2018-08-18T11:30:45.622Z,4.03
2018-08-18T11:33:31.384Z,5.30
2018-08-18T11:36:00.173Z,5.78
2018-08-18T11:38:28.885Z,4.42
2018-08-18T11:40:57.647Z,5.80
2018-08-18T11:43:26.645Z,5.97
2018-08-18T11:45:55.362Z,4.20
2018-08-18T11:48:24.901Z,8.47
2018-08-18T11:50:54.753Z,18.70
2018-08-18T11:53:23.525Z,8.13
2018-08-18T11:55:52.239Z,3.77
2018-08-18T11:58:22.287Z,5.67
2018-08-18T12:00:53.411Z,7.37
2018-08-18T12:03:25.663Z,4.20
2018-08-18T12:05:55.600Z,4.83
2018-08-18T12:08:26.351Z,6.87
2018-08-18T12:10:56.705Z,6.97
2018-08-18T12:13:30.966Z,5.03
2018-08-18T12:16:04.585Z,4.33
2018-08-18T12:18:33.906Z,5.23
2018-08-18T12:21:03.901Z,8.23
2018-08-18T12:23:35.004Z,3.87
2018-08-18T12:26:08.803Z,5.20
2018-08-18T12:28:42.673Z,5.53
2018-08-18T12:31:14.138Z,3.97
2018-08-18T12:33:42.953Z,3.80
2018-08-18T12:36:11.772Z,5.37
2018-08-18T12:38:41.813Z,6.07
2018-08-18T12:41:10.627Z,7.70
2018-08-18T12:43:41.832Z,4.10
2018-08-18T12:46:12.241Z,9.63
2018-08-18T12:48:42.192Z,6.87
2018-08-18T12:51:12.075Z,6.83
2018-08-18T12:53:46.204Z,7.63
2018-08-18T12:56:16.652Z,4.33
2018-08-18T12:58:45.465Z,10.47
2018-08-18T13:01:20.508Z,8.60
2018-08-18T13:03:49.269Z,3.33
2018-08-18T13:06:17.999Z,4.70
2018-08-18T13:08:46.820Z,5.70
2018-08-18T13:11:16.089Z,4.87
2018-08-18T13:13:44.868Z,6.50
2018-08-18T13:16:13.627Z,6.47
2018-08-18T13:18:42.826Z,5.03
2018-08-18T13:21:11.502Z,7.83
2018-08-18T13:23:40.237Z,4.60
2018-08-18T13:26:09.538Z,5.83
2018-08-18T13:28:39.302Z,8.47
2018-08-18T13:31:08.120Z,5.83
2018-08-18T13:33:40.508Z,5.30
2018-08-18T13:36:09.262Z,6.57
2018-08-18T13:38:38.090Z,7.43
2018-08-18T13:41:07.297Z,11.97
2018-08-18T13:43:43.398Z,9.57
2018-08-18T13:46:13.640Z,7.63
2018-08-18T13:48:52.022Z,10.07
2018-08-18T13:51:22.065Z,6.57
2018-08-18T13:53:55.093Z,6.23
2018-08-18T13:56:26.275Z,7.03
2018-08-18T13:58:55.796Z,4.30
2018-08-18T14:01:37.705Z,7.87
2018-08-18T14:04:06.658Z,5.27
2018-08-18T14:06:41.031Z,7.93
2018-08-18T14:09:10.620Z,5.93
2018-08-18T14:11:39.450Z,4.50
2018-08-18T14:14:08.165Z,6.10
2018-08-18T14:16:36.889Z,3.67
2018-08-18T14:19:05.747Z,5.67
2018-08-18T14:21:34.481Z,4.87
2018-08-18T14:24:03.251Z,7.90
2018-08-18T14:26:31.975Z,3.30
2018-08-18T14:29:00.700Z,4.90
2018-08-18T14:31:29.455Z,5.83
2018-08-18T14:33:58.330Z,6.27
2018-08-18T14:36:26.963Z,5.37
2018-08-18T14:38:55.716Z,3.77
2018-08-18T14:41:35.762Z,8.00
2018-08-18T14:44:04.531Z,6.70
2018-08-18T14:46:33.434Z,6.00
2018-08-18T14:49:02.081Z,5.27
2018-08-18T14:51:30.833Z,4.63
2018-08-18T14:53:59.767Z,4.67
2018-08-18T14:56:28.463Z,5.83
2018-08-18T14:58:57.206Z,6.10
2018-08-18T15:01:25.940Z,4.13
2018-08-18T15:03:54.719Z,3.63
2018-08-18T15:06:23.450Z,6.70
2018-08-18T15:08:52.235Z,4.07
2018-08-18T15:11:20.924Z,6.87
2018-08-18T15:13:49.683Z,5.03
2018-08-18T15:16:18.370Z,5.50
2018-08-18T15:18:47.120Z,6.77
2018-08-18T15:21:15.989Z,5.07
2018-08-18T15:23:44.644Z,5.43
2018-08-18T15:26:13.323Z,6.53
2018-08-18T15:28:42.190Z,7.13
2018-08-18T15:31:10.940Z,7.97
2018-08-18T15:33:39.686Z,5.93
2018-08-18T15:36:19.848Z,6.13
2018-08-18T15:38:48.629Z,7.17
2018-08-18T15:41:17.368Z,5.53
2018-08-18T15:43:46.121Z,6.83
2018-08-18T15:46:14.829Z,3.57
2018-08-18T15:48:43.901Z,5.27
2018-08-18T15:51:12.617Z,6.43
2018-08-18T15:53:43.649Z,5.33
2018-08-18T15:56:12.435Z,5.70
2018-08-18T15:58:41.451Z,5.00
2018-08-18T16:01:10.161Z,7.40
2018-08-18T16:03:38.891Z,8.70
2018-08-18T16:06:07.697Z,7.33
2018-08-18T16:08:36.477Z,6.13
2018-08-18T16:11:05.447Z,4.43
2018-08-18T16:13:34.193Z,7.20
2018-08-18T16:16:02.933Z,5.00
2018-08-18T16:18:31.725Z,5.60
2018-08-18T16:21:05.113Z,4.07
2018-08-18T16:23:33.880Z,6.23
2018-08-18T16:26:02.600Z,6.03
2018-08-18T16:28:36.051Z,3.93
2018-08-18T16:31:05.012Z,9.67
2018-08-18T16:33:33.747Z,4.77
2018-08-18T16:36:02.479Z,4.30
2018-08-18T16:38:31.202Z,5.90
2018-08-18T16:40:59.944Z,6.17
2018-08-18T16:43:31.571Z,5.00
2018-08-18T16:46:16.125Z,6.30
2018-08-18T16:48:44.916Z,6.73
2018-08-18T16:51:13.640Z,5.93
2018-08-18T16:53:44.399Z,4.63
2018-08-18T16:56:23.054Z,11.27
2018-08-18T16:58:53.142Z,7.90
2018-08-18T17:01:22.388Z,5.23
2018-08-18T17:03:51.688Z,6.87
2018-08-18T17:06:20.458Z,6.37
2018-08-18T17:08:49.197Z,4.93
2018-08-18T17:11:17.951Z,6.63
2018-08-18T17:13:46.858Z,12.73
2018-08-18T17:16:15.602Z,6.27
2018-08-18T17:18:44.463Z,4.53
2018-08-18T17:21:14.108Z,5.13
2018-08-18T17:23:43.042Z,8.67
2018-08-18T17:26:11.744Z,5.37
2018-08-18T17:28:40.697Z,7.07
2018-08-18T17:31:09.411Z,5.40
2018-08-18T17:33:38.110Z,4.83
2018-08-18T17:36:06.922Z,5.27
2018-08-18T17:38:35.650Z,10.83
2018-08-18T17:41:04.376Z,7.40
2018-08-18T17:43:33.138Z,7.57
2018-08-18T17:46:04.722Z,15.23
2018-08-18T17:48:38.866Z,9.23
2018-08-18T17:51:07.604Z,10.33
2018-08-18T17:53:36.338Z,8.07
2018-08-18T17:56:05.229Z,9.27
2018-08-18T17:58:34.096Z,5.93
2018-08-18T18:01:04.133Z,6.57
2018-08-18T18:03:32.965Z,5.33
2018-08-18T18:06:01.736Z,10.23
2018-08-18T18:08:30.506Z,9.70
2018-08-18T18:11:00.559Z,9.63
2018-08-18T18:13:30.083Z,10.63
2018-08-18T18:15:58.824Z,10.53
2018-08-18T18:18:33.109Z,9.80
2018-08-18T18:21:01.961Z,6.93
2018-08-18T18:23:30.705Z,6.60
2018-08-18T18:25:59.430Z,6.20
2018-08-18T18:28:28.285Z,7.27
2018-08-18T18:30:57.018Z,6.93
2018-08-18T18:33:25.856Z,8.33
2018-08-18T18:35:54.561Z,11.60
2018-08-18T18:38:23.279Z,7.40
2018-08-18T18:40:52.204Z,11.83
2018-08-18T18:43:20.919Z,10.13
2018-08-18T18:45:49.816Z,8.47
2018-08-18T18:48:18.435Z,10.13
2018-08-18T18:50:49.467Z,33.13
2018-08-18T18:53:18.203Z,27.57
2018-08-18T18:55:54.503Z,21.63
2018-08-18T18:58:23.230Z,14.07
2018-08-18T19:01:00.220Z,12.00
2018-08-18T19:03:29.179Z,11.73
2018-08-18T19:05:57.977Z,14.30
2018-08-18T19:08:26.705Z,12.67
2018-08-18T19:10:55.410Z,12.73
2018-08-18T19:13:26.311Z,9.57
2018-08-18T19:15:55.028Z,9.37
2018-08-18T19:18:23.786Z,12.13
2018-08-18T19:20:52.510Z,12.67
2018-08-18T19:23:21.656Z,14.37
2018-08-18T19:25:51.534Z,10.17
2018-08-18T19:28:21.654Z,12.53
2018-08-18T19:30:50.407Z,11.27
2018-08-18T19:33:19.528Z,10.40
2018-08-18T19:35:50.298Z,12.27
2018-08-18T19:38:20.278Z,13.00
2018-08-18T19:40:51.724Z,12.13
2018-08-18T19:43:21.700Z,13.07
2018-08-18T19:45:50.864Z,14.60
2018-08-18T19:48:21.392Z,14.00
2018-08-18T19:50:57.170Z,42.93
2018-08-18T19:53:28.030Z,29.23
2018-08-18T19:55:57.758Z,20.20
2018-08-18T19:58:27.186Z,20.93
2018-08-18T20:00:55.963Z,17.73
2018-08-18T20:03:25.311Z,19.40
2018-08-18T20:05:54.044Z,19.63
2018-08-18T20:08:23.916Z,16.53
2018-08-18T20:10:58.113Z,15.27
2018-08-18T20:13:28.196Z,14.73
2018-08-18T20:15:59.376Z,13.57
2018-08-18T20:18:28.981Z,11.00
2018-08-18T20:20:58.175Z,9.40
2018-08-18T20:23:26.929Z,10.53
2018-08-18T20:25:55.673Z,11.07
2018-08-18T20:28:24.485Z,10.73
2018-08-18T20:30:53.211Z,11.03
2018-08-18T20:33:21.938Z,10.57
2018-08-18T20:35:50.877Z,12.10
2018-08-18T20:38:19.607Z,11.50
2018-08-18T20:40:48.452Z,11.73
2018-08-18T20:43:17.755Z,11.10
2018-08-18T20:45:48.427Z,10.80
2018-08-18T20:48:18.818Z,11.57
2018-08-18T20:50:47.628Z,11.10
2018-08-18T20:53:17.153Z,11.53
2018-08-18T20:55:54.451Z,10.13
2018-08-18T20:58:23.305Z,11.07
2018-08-18T21:00:52.036Z,8.77
2018-08-18T21:03:20.749Z,12.13
2018-08-18T21:05:49.501Z,15.17
2018-08-18T21:08:18.285Z,11.63
2018-08-18T21:10:47.450Z,15.73
2018-08-18T21:13:16.222Z,11.57
2018-08-18T21:15:44.972Z,16.23
2018-08-18T21:18:17.407Z,11.87
2018-08-18T21:20:46.351Z,15.07
2018-08-18T21:23:15.366Z,9.60
2018-08-18T21:25:45.832Z,13.37
2018-08-18T21:28:15.737Z,11.23
2018-08-18T21:30:44.542Z,12.23
2018-08-18T21:33:13.292Z,15.90
2018-08-18T21:35:42.078Z,12.47
2018-08-18T21:38:11.306Z,13.73
2018-08-18T21:40:40.208Z,11.40
2018-08-18T21:43:19.229Z,14.73
2018-08-18T21:45:47.986Z,16.63
2018-08-18T21:48:16.942Z,15.97
2018-08-18T21:50:46.509Z,15.13
2018-08-18T21:53:15.384Z,11.80
2018-08-18T21:55:44.250Z,11.33
2018-08-18T21:58:13.032Z,11.07
2018-08-18T22:00:41.915Z,14.93
2018-08-18T22:03:10.707Z,12.00
2018-08-18T22:05:39.453Z,13.50
2018-08-18T22:08:09.747Z,10.83
2018-08-18T22:10:41.325Z,12.00
2018-08-18T22:13:10.073Z,12.20
2018-08-18T22:15:38.795Z,11.63
2018-08-18T22:18:07.527Z,12.97
2018-08-18T22:20:36.353Z,15.20
2018-08-18T22:23:07.639Z,9.60
2018-08-18T22:25:36.601Z,10.07
2018-08-18T22:28:05.339Z,13.70
2018-08-18T22:30:34.063Z,12.63
2018-08-18T22:33:02.839Z,15.57
2018-08-18T22:35:31.559Z,10.47
2018-08-18T22:38:00.288Z,10.53
2018-08-18T22:40:29.006Z,13.53
2018-08-18T22:42:57.719Z,10.47
2018-08-18T22:45:28.465Z,14.37
2018-08-18T22:47:57.193Z,14.07
2018-08-18T22:50:25.969Z,13.33
2018-08-18T22:52:55.172Z,13.03
2018-08-18T22:55:23.885Z,13.70
2018-08-18T22:58:08.245Z,12.77
2018-08-18T23:00:40.966Z,15.43
2018-08-18T23:03:10.082Z,15.33
2018-08-18T23:05:38.848Z,13.60
2018-08-18T23:08:07.582Z,14.20
2018-08-18T23:10:36.330Z,12.40
2018-08-18T23:13:05.087Z,11.07
2018-08-18T23:15:33.822Z,11.47
2018-08-18T23:18:02.544Z,13.90
2018-08-18T23:20:31.311Z,19.57
2018-08-18T23:23:01.171Z,12.30
2018-08-18T23:25:32.167Z,9.70
2018-08-18T23:28:00.904Z,14.80
2018-08-18T23:30:35.744Z,12.43
2018-08-18T23:33:06.253Z,11.53
2018-08-18T23:35:35.051Z,10.07
2018-08-18T23:38:04.038Z,11.50
2018-08-18T23:40:32.782Z,13.13
2018-08-18T23:43:01.506Z,11.90
2018-08-18T23:45:36.537Z,11.60
2018-08-18T23:48:07.762Z,10.40
2018-08-18T23:50:37.395Z,11.90
2018-08-18T23:53:09.276Z,12.40
2018-08-18T23:55:44.756Z,11.10
2018-08-18T23:58:13.560Z,7.83
